sensor_id;sensor_type;location;lat;lon;timestamp;temperature;humidity
1704;DHT22;849;48.780;9.216;2023-06-26T00:00:40;24.60;63.40
1704;DHT22;849;48.780;9.216;2023-06-26T00:03:11;24.60;63.10
1704;DHT22;849;48.780;9.216;2023-06-26T00:05:45;24.50;63.60
1704;DHT22;849;48.780;9.216;2023-06-26T00:08:16;24.60;63.90
1704;DHT22;849;48.780;9.216;2023-06-26T00:10:47;24.60;64.10
1704;DHT22;849;48.780;9.216;2023-06-26T00:13:21;24.60;64.10
1704;DHT22;849;48.780;9.216;2023-06-26T00:15:54;24.50;64.00
1704;DHT22;849;48.780;9.216;2023-06-26T00:18:25;24.40;64.20
1704;DHT22;849;48.780;9.216;2023-06-26T00:20:56;24.40;64.20
1704;DHT22;849;48.780;9.216;2023-06-26T00:23:27;24.30;64.20
1704;DHT22;849;48.780;9.216;2023-06-26T00:25:58;24.30;64.60
1704;DHT22;849;48.780;9.216;2023-06-26T00:28:29;24.30;64.90
1704;DHT22;849;48.780;9.216;2023-06-26T00:31:00;24.20;65.00
1704;DHT22;849;48.780;9.216;2023-06-26T00:33:31;24.10;65.30
1704;DHT22;849;48.780;9.216;2023-06-26T00:36:02;24.20;65.40
1704;DHT22;849;48.780;9.216;2023-06-26T00:38:32;24.10;65.50
1704;DHT22;849;48.780;9.216;2023-06-26T00:41:03;24.00;66.20
1704;DHT22;849;48.780;9.216;2023-06-26T00:43:35;24.00;66.10
1704;DHT22;849;48.780;9.216;2023-06-26T00:46:09;23.90;65.80
1704;DHT22;849;48.780;9.216;2023-06-26T00:48:42;23.70;66.40
1704;DHT22;849;48.780;9.216;2023-06-26T00:51:13;23.70;67.00
1704;DHT22;849;48.780;9.216;2023-06-26T00:53:44;23.70;66.50
1704;DHT22;849;48.780;9.216;2023-06-26T00:56:15;23.70;66.20
1704;DHT22;849;48.780;9.216;2023-06-26T00:58:47;23.70;66.40
1704;DHT22;849;48.780;9.216;2023-06-26T01:01:18;23.60;66.70
1704;DHT22;849;48.780;9.216;2023-06-26T01:03:56;23.60;67.10
1704;DHT22;849;48.780;9.216;2023-06-26T01:06:28;23.60;67.10
1704;DHT22;849;48.780;9.216;2023-06-26T01:09:02;23.70;67.50
1704;DHT22;849;48.780;9.216;2023-06-26T01:11:33;23.80;66.90
1704;DHT22;849;48.780;9.216;2023-06-26T01:14:04;23.60;67.00
1704;DHT22;849;48.780;9.216;2023-06-26T01:16:35;23.60;67.80
1704;DHT22;849;48.780;9.216;2023-06-26T01:19:18;23.50;67.30
1704;DHT22;849;48.780;9.216;2023-06-26T01:22:00;23.50;67.80
1704;DHT22;849;48.780;9.216;2023-06-26T01:24:33;23.50;68.00
1704;DHT22;849;48.780;9.216;2023-06-26T01:27:07;23.50;68.40
1704;DHT22;849;48.780;9.216;2023-06-26T01:29:39;23.30;68.40
1704;DHT22;849;48.780;9.216;2023-06-26T01:32:11;23.40;69.20
1704;DHT22;849;48.780;9.216;2023-06-26T01:34:43;23.40;69.10
1704;DHT22;849;48.780;9.216;2023-06-26T01:37:15;23.50;68.70
1704;DHT22;849;48.780;9.216;2023-06-26T01:39:45;23.50;69.10
1704;DHT22;849;48.780;9.216;2023-06-26T01:42:16;23.40;69.00
1704;DHT22;849;48.780;9.216;2023-06-26T01:44:48;23.40;69.00
1704;DHT22;849;48.780;9.216;2023-06-26T01:47:22;23.30;69.20
1704;DHT22;849;48.780;9.216;2023-06-26T01:50:06;23.30;69.50
1704;DHT22;849;48.780;9.216;2023-06-26T01:52:53;23.30;69.80
1704;DHT22;849;48.780;9.216;2023-06-26T01:55:55;23.20;70.00
1704;DHT22;849;48.780;9.216;2023-06-26T01:58:28;23.40;69.90
1704;DHT22;849;48.780;9.216;2023-06-26T02:00:59;23.20;69.60
1704;DHT22;849;48.780;9.216;2023-06-26T02:03:30;23.20;70.10
1704;DHT22;849;48.780;9.216;2023-06-26T02:06:01;23.10;70.00
1704;DHT22;849;48.780;9.216;2023-06-26T02:08:32;23.10;70.20
1704;DHT22;849;48.780;9.216;2023-06-26T02:11:03;23.00;70.60
1704;DHT22;849;48.780;9.216;2023-06-26T02:13:33;23.00;70.40
1704;DHT22;849;48.780;9.216;2023-06-26T02:16:04;22.90;70.70
1704;DHT22;849;48.780;9.216;2023-06-26T02:18:35;22.80;71.10
1704;DHT22;849;48.780;9.216;2023-06-26T02:21:06;22.80;71.40
1704;DHT22;849;48.780;9.216;2023-06-26T02:23:37;22.80;71.40
1704;DHT22;849;48.780;9.216;2023-06-26T02:26:08;22.80;71.30
1704;DHT22;849;48.780;9.216;2023-06-26T02:28:39;22.70;71.40
1704;DHT22;849;48.780;9.216;2023-06-26T02:31:09;22.70;71.60
1704;DHT22;849;48.780;9.216;2023-06-26T02:33:41;22.70;71.70
1704;DHT22;849;48.780;9.216;2023-06-26T02:36:13;22.60;71.80
1704;DHT22;849;48.780;9.216;2023-06-26T02:38:43;22.60;72.50
1704;DHT22;849;48.780;9.216;2023-06-26T02:41:14;22.60;72.00
1704;DHT22;849;48.780;9.216;2023-06-26T02:43:45;22.60;71.80
1704;DHT22;849;48.780;9.216;2023-06-26T02:46:16;22.60;72.10
1704;DHT22;849;48.780;9.216;2023-06-26T02:48:46;22.60;72.20
1704;DHT22;849;48.780;9.216;2023-06-26T02:51:17;22.50;72.40
1704;DHT22;849;48.780;9.216;2023-06-26T02:53:48;22.50;72.90
1704;DHT22;849;48.780;9.216;2023-06-26T02:56:19;22.50;72.70
1704;DHT22;849;48.780;9.216;2023-06-26T02:58:49;22.50;72.50
1704;DHT22;849;48.780;9.216;2023-06-26T03:01:20;22.50;72.80
1704;DHT22;849;48.780;9.216;2023-06-26T03:03:52;22.50;72.90
1704;DHT22;849;48.780;9.216;2023-06-26T03:06:23;22.50;73.10
1704;DHT22;849;48.780;9.216;2023-06-26T03:08:54;22.60;73.00
1704;DHT22;849;48.780;9.216;2023-06-26T03:11:24;22.60;72.70
1704;DHT22;849;48.780;9.216;2023-06-26T03:13:55;22.50;73.00
1704;DHT22;849;48.780;9.216;2023-06-26T03:16:26;22.50;72.90
1704;DHT22;849;48.780;9.216;2023-06-26T03:18:57;22.40;73.10
1704;DHT22;849;48.780;9.216;2023-06-26T03:21:27;22.40;73.20
1704;DHT22;849;48.780;9.216;2023-06-26T03:23:58;22.50;73.60
1704;DHT22;849;48.780;9.216;2023-06-26T03:26:29;22.40;73.50
1704;DHT22;849;48.780;9.216;2023-06-26T03:29:00;22.40;73.70
1704;DHT22;849;48.780;9.216;2023-06-26T03:31:31;22.30;73.70
1704;DHT22;849;48.780;9.216;2023-06-26T03:34:01;22.40;74.10
1704;DHT22;849;48.780;9.216;2023-06-26T03:36:32;22.30;74.30
1704;DHT22;849;48.780;9.216;2023-06-26T03:39:03;22.20;74.10
1704;DHT22;849;48.780;9.216;2023-06-26T03:41:34;22.20;74.30
1704;DHT22;849;48.780;9.216;2023-06-26T03:44:05;22.20;74.90
1704;DHT22;849;48.780;9.216;2023-06-26T03:46:36;22.30;75.00
1704;DHT22;849;48.780;9.216;2023-06-26T03:49:06;22.30;74.80
1704;DHT22;849;48.780;9.216;2023-06-26T03:51:37;22.40;75.30
1704;DHT22;849;48.780;9.216;2023-06-26T03:54:08;22.40;75.50
1704;DHT22;849;48.780;9.216;2023-06-26T03:56:39;22.30;75.40
1704;DHT22;849;48.780;9.216;2023-06-26T03:59:10;22.40;75.90
1704;DHT22;849;48.780;9.216;2023-06-26T04:01:41;22.40;75.80
1704;DHT22;849;48.780;9.216;2023-06-26T04:04:12;22.40;76.50
1704;DHT22;849;48.780;9.216;2023-06-26T04:06:42;22.30;76.30
1704;DHT22;849;48.780;9.216;2023-06-26T04:09:13;22.40;76.80
1704;DHT22;849;48.780;9.216;2023-06-26T04:11:44;22.50;77.20
1704;DHT22;849;48.780;9.216;2023-06-26T04:14:15;22.40;77.20
1704;DHT22;849;48.780;9.216;2023-06-26T04:16:45;22.40;77.70
1704;DHT22;849;48.780;9.216;2023-06-26T04:19:16;22.40;78.40
1704;DHT22;849;48.780;9.216;2023-06-26T04:21:47;22.50;78.70
1704;DHT22;849;48.780;9.216;2023-06-26T04:24:18;22.50;78.70
1704;DHT22;849;48.780;9.216;2023-06-26T04:26:48;22.50;78.40
1704;DHT22;849;48.780;9.216;2023-06-26T04:29:14;22.50;78.90
1704;DHT22;849;48.780;9.216;2023-06-26T04:31:45;22.60;79.60
1704;DHT22;849;48.780;9.216;2023-06-26T04:34:16;22.70;79.80
1704;DHT22;849;48.780;9.216;2023-06-26T04:36:47;22.80;79.30
1704;DHT22;849;48.780;9.216;2023-06-26T04:39:18;22.70;78.70
1704;DHT22;849;48.780;9.216;2023-06-26T04:41:49;22.70;78.60
1704;DHT22;849;48.780;9.216;2023-06-26T04:44:20;22.70;78.20
1704;DHT22;849;48.780;9.216;2023-06-26T04:46:51;22.70;78.80
1704;DHT22;849;48.780;9.216;2023-06-26T04:49:22;22.70;79.40
1704;DHT22;849;48.780;9.216;2023-06-26T04:51:54;22.80;79.50
1704;DHT22;849;48.780;9.216;2023-06-26T04:54:26;22.90;79.90
1704;DHT22;849;48.780;9.216;2023-06-26T04:56:56;22.80;79.20
1704;DHT22;849;48.780;9.216;2023-06-26T04:59:27;22.80;78.40
1704;DHT22;849;48.780;9.216;2023-06-26T05:01:58;22.90;78.50
1704;DHT22;849;48.780;9.216;2023-06-26T05:04:29;22.90;78.60
1704;DHT22;849;48.780;9.216;2023-06-26T05:06:59;22.90;78.60
1704;DHT22;849;48.780;9.216;2023-06-26T05:09:30;22.90;78.60
1704;DHT22;849;48.780;9.216;2023-06-26T05:12:02;23.00;78.70
1704;DHT22;849;48.780;9.216;2023-06-26T05:14:33;23.00;79.00
1704;DHT22;849;48.780;9.216;2023-06-26T05:17:04;23.00;79.20
1704;DHT22;849;48.780;9.216;2023-06-26T05:19:34;23.10;80.10
1704;DHT22;849;48.780;9.216;2023-06-26T05:22:06;23.10;79.40
1704;DHT22;849;48.780;9.216;2023-06-26T05:24:40;23.00;80.00
1704;DHT22;849;48.780;9.216;2023-06-26T05:27:12;22.80;81.60
1704;DHT22;849;48.780;9.216;2023-06-26T05:29:50;22.70;82.70
1704;DHT22;849;48.780;9.216;2023-06-26T05:32:21;22.60;83.20
1704;DHT22;849;48.780;9.216;2023-06-26T05:34:53;22.70;83.50
1704;DHT22;849;48.780;9.216;2023-06-26T05:37:26;22.70;83.50
1704;DHT22;849;48.780;9.216;2023-06-26T05:39:57;22.80;83.30
1704;DHT22;849;48.780;9.216;2023-06-26T05:42:28;22.70;83.80
1704;DHT22;849;48.780;9.216;2023-06-26T05:45:14;22.60;83.70
1704;DHT22;849;48.780;9.216;2023-06-26T05:47:59;22.60;84.30
1704;DHT22;849;48.780;9.216;2023-06-26T05:50:44;22.60;84.40
1704;DHT22;849;48.780;9.216;2023-06-26T05:53:15;22.70;85.30
1704;DHT22;849;48.780;9.216;2023-06-26T05:55:46;22.80;84.90
1704;DHT22;849;48.780;9.216;2023-06-26T05:58:18;22.80;85.00
1704;DHT22;849;48.780;9.216;2023-06-26T06:00:50;22.80;86.00
1704;DHT22;849;48.780;9.216;2023-06-26T06:03:21;22.90;87.00
1704;DHT22;849;48.780;9.216;2023-06-26T06:05:52;22.90;86.80
1704;DHT22;849;48.780;9.216;2023-06-26T06:08:22;22.80;86.80
1704;DHT22;849;48.780;9.216;2023-06-26T06:10:56;23.00;86.60
1704;DHT22;849;48.780;9.216;2023-06-26T06:13:26;23.30;85.30
1704;DHT22;849;48.780;9.216;2023-06-26T06:15:57;23.60;84.10
1704;DHT22;849;48.780;9.216;2023-06-26T06:18:28;23.60;85.00
1704;DHT22;849;48.780;9.216;2023-06-26T06:20:59;23.60;85.20
1704;DHT22;849;48.780;9.216;2023-06-26T06:23:30;23.60;87.00
1704;DHT22;849;48.780;9.216;2023-06-26T06:26:01;23.50;89.20
1704;DHT22;849;48.780;9.216;2023-06-26T06:28:31;23.30;86.60
1704;DHT22;849;48.780;9.216;2023-06-26T06:31:02;23.20;86.80
1704;DHT22;849;48.780;9.216;2023-06-26T06:33:33;23.30;87.80
1704;DHT22;849;48.780;9.216;2023-06-26T06:36:04;23.30;88.10
1704;DHT22;849;48.780;9.216;2023-06-26T06:38:35;23.30;87.80
1704;DHT22;849;48.780;9.216;2023-06-26T06:41:06;23.30;89.30
1704;DHT22;849;48.780;9.216;2023-06-26T06:43:37;23.50;88.70
1704;DHT22;849;48.780;9.216;2023-06-26T06:46:07;23.50;86.90
1704;DHT22;849;48.780;9.216;2023-06-26T06:48:38;23.60;88.10
1704;DHT22;849;48.780;9.216;2023-06-26T06:51:09;23.70;86.20
1704;DHT22;849;48.780;9.216;2023-06-26T06:53:40;23.60;87.20
1704;DHT22;849;48.780;9.216;2023-06-26T06:56:11;23.50;86.60
1704;DHT22;849;48.780;9.216;2023-06-26T06:58:41;23.60;88.80
1704;DHT22;849;48.780;9.216;2023-06-26T07:01:13;23.60;89.70
1704;DHT22;849;48.780;9.216;2023-06-26T07:03:44;23.60;88.70
1704;DHT22;849;48.780;9.216;2023-06-26T07:06:15;23.60;88.00
1704;DHT22;849;48.780;9.216;2023-06-26T07:08:41;23.80;88.70
1704;DHT22;849;48.780;9.216;2023-06-26T07:11:12;23.80;87.00
1704;DHT22;849;48.780;9.216;2023-06-26T07:13:43;24.00;90.80
1704;DHT22;849;48.780;9.216;2023-06-26T07:16:14;23.90;87.30
1704;DHT22;849;48.780;9.216;2023-06-26T07:18:45;24.00;86.60
1704;DHT22;849;48.780;9.216;2023-06-26T07:21:16;24.20;84.70
1704;DHT22;849;48.780;9.216;2023-06-26T07:23:47;24.20;83.90
1704;DHT22;849;48.780;9.216;2023-06-26T07:26:18;24.10;83.70
1704;DHT22;849;48.780;9.216;2023-06-26T07:28:48;24.10;85.50
1704;DHT22;849;48.780;9.216;2023-06-26T07:31:20;24.20;85.30
1704;DHT22;849;48.780;9.216;2023-06-26T07:33:50;24.40;87.80
1704;DHT22;849;48.780;9.216;2023-06-26T07:36:21;24.50;84.10
1704;DHT22;849;48.780;9.216;2023-06-26T07:38:52;24.50;83.60
1704;DHT22;849;48.780;9.216;2023-06-26T07:41:23;24.60;82.50
1704;DHT22;849;48.780;9.216;2023-06-26T07:43:53;24.60;82.00
1704;DHT22;849;48.780;9.216;2023-06-26T07:46:24;24.80;86.20
1704;DHT22;849;48.780;9.216;2023-06-26T07:48:55;24.90;80.80
1704;DHT22;849;48.780;9.216;2023-06-26T07:51:26;24.70;80.70
1704;DHT22;849;48.780;9.216;2023-06-26T07:53:56;24.80;81.30
1704;DHT22;849;48.780;9.216;2023-06-26T07:56:27;24.80;83.40
1704;DHT22;849;48.780;9.216;2023-06-26T07:58:58;24.90;82.30
1704;DHT22;849;48.780;9.216;2023-06-26T08:01:31;24.90;83.50
1704;DHT22;849;48.780;9.216;2023-06-26T08:04:01;25.10;82.50
1704;DHT22;849;48.780;9.216;2023-06-26T08:06:32;25.10;81.70
1704;DHT22;849;48.780;9.216;2023-06-26T08:09:03;25.10;78.80
1704;DHT22;849;48.780;9.216;2023-06-26T08:11:35;25.20;78.50
1704;DHT22;849;48.780;9.216;2023-06-26T08:14:06;25.30;79.10
1704;DHT22;849;48.780;9.216;2023-06-26T08:16:37;25.40;78.30
1704;DHT22;849;48.780;9.216;2023-06-26T08:19:08;25.40;78.10
1704;DHT22;849;48.780;9.216;2023-06-26T08:21:43;25.40;77.60
1704;DHT22;849;48.780;9.216;2023-06-26T08:24:14;25.60;78.00
1704;DHT22;849;48.780;9.216;2023-06-26T08:26:49;25.70;77.40
1704;DHT22;849;48.780;9.216;2023-06-26T08:29:19;25.90;78.50
1704;DHT22;849;48.780;9.216;2023-06-26T08:31:50;25.90;77.70
1704;DHT22;849;48.780;9.216;2023-06-26T08:34:21;25.90;78.50
1704;DHT22;849;48.780;9.216;2023-06-26T08:36:52;26.10;75.90
1704;DHT22;849;48.780;9.216;2023-06-26T08:39:22;26.10;74.70
1704;DHT22;849;48.780;9.216;2023-06-26T08:41:53;26.10;73.50
1704;DHT22;849;48.780;9.216;2023-06-26T08:44:24;26.10;73.30
1704;DHT22;849;48.780;9.216;2023-06-26T08:46:55;26.20;72.60
1704;DHT22;849;48.780;9.216;2023-06-26T08:49:34;26.30;70.80
1704;DHT22;849;48.780;9.216;2023-06-26T08:52:24;26.40;73.60
1704;DHT22;849;48.780;9.216;2023-06-26T08:54:58;26.40;72.10
1704;DHT22;849;48.780;9.216;2023-06-26T08:57:30;26.30;71.20
1704;DHT22;849;48.780;9.216;2023-06-26T09:00:03;26.60;70.60
1704;DHT22;849;48.780;9.216;2023-06-26T09:02:36;26.70;70.30
1704;DHT22;849;48.780;9.216;2023-06-26T09:05:07;26.70;69.50
1704;DHT22;849;48.780;9.216;2023-06-26T09:07:38;26.60;68.20
1704;DHT22;849;48.780;9.216;2023-06-26T09:10:09;26.80;69.40
1704;DHT22;849;48.780;9.216;2023-06-26T09:12:40;27.00;71.20
1704;DHT22;849;48.780;9.216;2023-06-26T09:15:14;26.90;68.60
1704;DHT22;849;48.780;9.216;2023-06-26T09:17:45;27.10;69.00
1704;DHT22;849;48.780;9.216;2023-06-26T09:20:17;27.60;67.70
1704;DHT22;849;48.780;9.216;2023-06-26T09:22:48;27.50;66.40
1704;DHT22;849;48.780;9.216;2023-06-26T09:25:20;27.60;65.70
1704;DHT22;849;48.780;9.216;2023-06-26T09:27:53;27.70;65.60
1704;DHT22;849;48.780;9.216;2023-06-26T09:30:25;27.70;66.20
1704;DHT22;849;48.780;9.216;2023-06-26T09:32:56;27.70;65.00
1704;DHT22;849;48.780;9.216;2023-06-26T09:35:27;27.80;63.80
1704;DHT22;849;48.780;9.216;2023-06-26T09:37:58;28.10;63.30
1704;DHT22;849;48.780;9.216;2023-06-26T09:40:28;28.10;62.20
1704;DHT22;849;48.780;9.216;2023-06-26T09:43:06;28.10;63.70
1704;DHT22;849;48.780;9.216;2023-06-26T09:45:36;28.10;63.70
1704;DHT22;849;48.780;9.216;2023-06-26T09:48:07;28.10;62.20
1704;DHT22;849;48.780;9.216;2023-06-26T09:50:41;28.10;63.90
1704;DHT22;849;48.780;9.216;2023-06-26T09:53:13;28.20;62.00
1704;DHT22;849;48.780;9.216;2023-06-26T09:55:44;28.40;61.70
1704;DHT22;849;48.780;9.216;2023-06-26T09:58:15;28.40;62.70
1704;DHT22;849;48.780;9.216;2023-06-26T10:00:47;28.40;60.90
1704;DHT22;849;48.780;9.216;2023-06-26T10:03:18;28.40;60.70
1704;DHT22;849;48.780;9.216;2023-06-26T10:05:50;28.60;60.70
1704;DHT22;849;48.780;9.216;2023-06-26T10:08:21;28.80;59.70
1704;DHT22;849;48.780;9.216;2023-06-26T10:10:52;28.70;60.60
1704;DHT22;849;48.780;9.216;2023-06-26T10:13:27;28.70;60.70
1704;DHT22;849;48.780;9.216;2023-06-26T10:16:00;28.60;60.70
1704;DHT22;849;48.780;9.216;2023-06-26T10:18:32;28.90;61.20
1704;DHT22;849;48.780;9.216;2023-06-26T10:21:05;28.90;61.30
1704;DHT22;849;48.780;9.216;2023-06-26T10:23:39;28.60;62.20
1704;DHT22;849;48.780;9.216;2023-06-26T10:26:11;28.70;63.30
1704;DHT22;849;48.780;9.216;2023-06-26T10:28:45;28.70;63.40
1704;DHT22;849;48.780;9.216;2023-06-26T10:31:23;28.60;62.80
1704;DHT22;849;48.780;9.216;2023-06-26T10:33:54;28.80;62.70
1704;DHT22;849;48.780;9.216;2023-06-26T10:36:30;28.80;64.10
1704;DHT22;849;48.780;9.216;2023-06-26T10:39:05;28.60;64.80
1704;DHT22;849;48.780;9.216;2023-06-26T10:41:40;28.50;65.80
1704;DHT22;849;48.780;9.216;2023-06-26T10:44:16;28.50;65.60
1704;DHT22;849;48.780;9.216;2023-06-26T10:46:51;28.40;65.80
1704;DHT22;849;48.780;9.216;2023-06-26T10:49:28;28.40;66.10
1704;DHT22;849;48.780;9.216;2023-06-26T10:52:01;28.40;66.40
1704;DHT22;849;48.780;9.216;2023-06-26T10:54:32;28.30;65.30
1704;DHT22;849;48.780;9.216;2023-06-26T10:57:04;28.30;64.00
1704;DHT22;849;48.780;9.216;2023-06-26T10:59:40;28.30;66.40
1704;DHT22;849;48.780;9.216;2023-06-26T11:02:11;28.20;64.60
1704;DHT22;849;48.780;9.216;2023-06-26T11:04:47;28.20;65.70
1704;DHT22;849;48.780;9.216;2023-06-26T11:07:24;28.20;64.10
1704;DHT22;849;48.780;9.216;2023-06-26T11:10:09;28.10;65.70
1704;DHT22;849;48.780;9.216;2023-06-26T11:12:40;28.20;65.60
1704;DHT22;849;48.780;9.216;2023-06-26T11:15:14;28.30;65.90
1704;DHT22;849;48.780;9.216;2023-06-26T11:17:45;28.30;64.70
1704;DHT22;849;48.780;9.216;2023-06-26T11:20:17;28.30;65.40
1704;DHT22;849;48.780;9.216;2023-06-26T11:22:52;28.60;65.80
1704;DHT22;849;48.780;9.216;2023-06-26T11:25:23;28.70;64.50
1704;DHT22;849;48.780;9.216;2023-06-26T11:27:54;28.90;65.30
1704;DHT22;849;48.780;9.216;2023-06-26T11:30:25;28.70;64.20
1704;DHT22;849;48.780;9.216;2023-06-26T11:33:09;28.70;64.30
1704;DHT22;849;48.780;9.216;2023-06-26T11:35:40;28.90;65.50
1704;DHT22;849;48.780;9.216;2023-06-26T11:38:10;28.90;64.60
1704;DHT22;849;48.780;9.216;2023-06-26T11:40:41;28.60;64.80
1704;DHT22;849;48.780;9.216;2023-06-26T11:43:12;28.50;65.60
1704;DHT22;849;48.780;9.216;2023-06-26T11:45:44;28.50;65.20
1704;DHT22;849;48.780;9.216;2023-06-26T11:48:15;28.70;63.80
1704;DHT22;849;48.780;9.216;2023-06-26T11:50:46;28.70;65.30
1704;DHT22;849;48.780;9.216;2023-06-26T11:53:20;28.70;65.40
1704;DHT22;849;48.780;9.216;2023-06-26T11:55:51;28.90;64.80
1704;DHT22;849;48.780;9.216;2023-06-26T11:58:22;29.10;65.00
1704;DHT22;849;48.780;9.216;2023-06-26T12:00:53;29.40;63.20
1704;DHT22;849;48.780;9.216;2023-06-26T12:03:24;29.30;62.90
1704;DHT22;849;48.780;9.216;2023-06-26T12:05:55;29.50;62.50
1704;DHT22;849;48.780;9.216;2023-06-26T12:08:26;29.40;66.10
1704;DHT22;849;48.780;9.216;2023-06-26T12:10:57;29.30;67.10
1704;DHT22;849;48.780;9.216;2023-06-26T12:13:28;29.10;68.60
1704;DHT22;849;48.780;9.216;2023-06-26T12:15:59;29.00;68.50
1704;DHT22;849;48.780;9.216;2023-06-26T12:18:34;28.90;69.00
1704;DHT22;849;48.780;9.216;2023-06-26T12:21:05;28.80;69.70
1704;DHT22;849;48.780;9.216;2023-06-26T12:23:39;28.80;70.80
1704;DHT22;849;48.780;9.216;2023-06-26T12:26:18;28.50;71.10
1704;DHT22;849;48.780;9.216;2023-06-26T12:28:49;28.60;71.00
1704;DHT22;849;48.780;9.216;2023-06-26T12:31:21;28.70;70.90
1704;DHT22;849;48.780;9.216;2023-06-26T12:33:52;28.60;70.80
1704;DHT22;849;48.780;9.216;2023-06-26T12:36:23;28.90;71.20
1704;DHT22;849;48.780;9.216;2023-06-26T12:38:54;29.10;70.30
1704;DHT22;849;48.780;9.216;2023-06-26T12:41:25;29.10;70.10
1704;DHT22;849;48.780;9.216;2023-06-26T12:43:56;29.20;70.30
1704;DHT22;849;48.780;9.216;2023-06-26T12:46:36;28.90;70.80
1704;DHT22;849;48.780;9.216;2023-06-26T12:49:08;29.10;70.30
1704;DHT22;849;48.780;9.216;2023-06-26T12:51:39;29.30;69.50
1704;DHT22;849;48.780;9.216;2023-06-26T12:54:10;29.20;69.20
1704;DHT22;849;48.780;9.216;2023-06-26T12:56:41;29.40;69.50
1704;DHT22;849;48.780;9.216;2023-06-26T12:59:12;29.50;68.60
1704;DHT22;849;48.780;9.216;2023-06-26T13:01:43;29.50;68.00
1704;DHT22;849;48.780;9.216;2023-06-26T13:04:14;29.50;67.40
1704;DHT22;849;48.780;9.216;2023-06-26T13:06:44;29.00;68.50
1704;DHT22;849;48.780;9.216;2023-06-26T13:09:16;29.00;68.50
1704;DHT22;849;48.780;9.216;2023-06-26T13:11:47;28.90;67.80
1704;DHT22;849;48.780;9.216;2023-06-26T13:14:17;28.80;68.80
1704;DHT22;849;48.780;9.216;2023-06-26T13:16:48;28.80;68.90
1704;DHT22;849;48.780;9.216;2023-06-26T13:19:19;29.20;68.70
1704;DHT22;849;48.780;9.216;2023-06-26T13:21:50;29.10;68.00
1704;DHT22;849;48.780;9.216;2023-06-26T13:24:20;29.00;68.50
1704;DHT22;849;48.780;9.216;2023-06-26T13:26:51;29.40;68.40
1704;DHT22;849;48.780;9.216;2023-06-26T13:29:22;29.40;66.80
1704;DHT22;849;48.780;9.216;2023-06-26T13:31:53;29.30;66.30
1704;DHT22;849;48.780;9.216;2023-06-26T13:34:27;29.20;67.10
1704;DHT22;849;48.780;9.216;2023-06-26T13:36:58;29.10;66.10
1704;DHT22;849;48.780;9.216;2023-06-26T13:39:30;29.10;66.20
1704;DHT22;849;48.780;9.216;2023-06-26T13:42:01;29.30;65.30
1704;DHT22;849;48.780;9.216;2023-06-26T13:44:32;29.20;65.30
1704;DHT22;849;48.780;9.216;2023-06-26T13:47:02;29.30;64.90
1704;DHT22;849;48.780;9.216;2023-06-26T13:49:33;29.30;65.00
1704;DHT22;849;48.780;9.216;2023-06-26T13:52:04;29.30;63.10
1704;DHT22;849;48.780;9.216;2023-06-26T13:54:36;29.10;62.50
1704;DHT22;849;48.780;9.216;2023-06-26T13:57:09;29.10;62.20
1704;DHT22;849;48.780;9.216;2023-06-26T13:59:40;29.20;61.90
1704;DHT22;849;48.780;9.216;2023-06-26T14:02:11;29.40;59.90
1704;DHT22;849;48.780;9.216;2023-06-26T14:04:42;29.40;59.80
1704;DHT22;849;48.780;9.216;2023-06-26T14:07:13;29.50;59.80
1704;DHT22;849;48.780;9.216;2023-06-26T14:09:45;29.60;59.40
1704;DHT22;849;48.780;9.216;2023-06-26T14:12:15;29.40;58.50
1704;DHT22;849;48.780;9.216;2023-06-26T14:14:46;29.50;58.90
1704;DHT22;849;48.780;9.216;2023-06-26T14:17:17;29.40;58.00
1704;DHT22;849;48.780;9.216;2023-06-26T14:19:48;29.60;57.40
1704;DHT22;849;48.780;9.216;2023-06-26T14:22:18;29.80;58.40
1704;DHT22;849;48.780;9.216;2023-06-26T14:24:49;29.20;57.60
1704;DHT22;849;48.780;9.216;2023-06-26T14:27:20;29.30;58.00
1704;DHT22;849;48.780;9.216;2023-06-26T14:29:51;29.50;57.80
1704;DHT22;849;48.780;9.216;2023-06-26T14:32:22;29.60;56.50
1704;DHT22;849;48.780;9.216;2023-06-26T14:34:53;29.70;56.40
1704;DHT22;849;48.780;9.216;2023-06-26T14:37:24;29.60;56.70
1704;DHT22;849;48.780;9.216;2023-06-26T14:39:56;29.40;57.50
1704;DHT22;849;48.780;9.216;2023-06-26T14:42:28;29.30;57.00
1704;DHT22;849;48.780;9.216;2023-06-26T14:44:59;29.50;57.60
1704;DHT22;849;48.780;9.216;2023-06-26T14:47:29;29.60;56.50
1704;DHT22;849;48.780;9.216;2023-06-26T14:50:00;29.40;56.00
1704;DHT22;849;48.780;9.216;2023-06-26T14:52:31;29.10;56.80
1704;DHT22;849;48.780;9.216;2023-06-26T14:55:02;29.40;58.30
1704;DHT22;849;48.780;9.216;2023-06-26T14:57:33;29.70;56.70
1704;DHT22;849;48.780;9.216;2023-06-26T15:00:04;29.70;56.70
1704;DHT22;849;48.780;9.216;2023-06-26T15:02:36;29.70;56.30
1704;DHT22;849;48.780;9.216;2023-06-26T15:05:07;29.70;57.40
1704;DHT22;849;48.780;9.216;2023-06-26T15:07:38;29.70;57.10
1704;DHT22;849;48.780;9.216;2023-06-26T15:10:09;29.80;56.90
1704;DHT22;849;48.780;9.216;2023-06-26T15:12:40;29.40;57.20
1704;DHT22;849;48.780;9.216;2023-06-26T15:15:11;29.30;57.10
1704;DHT22;849;48.780;9.216;2023-06-26T15:17:42;29.50;57.20
1704;DHT22;849;48.780;9.216;2023-06-26T15:20:13;29.70;57.60
1704;DHT22;849;48.780;9.216;2023-06-26T15:22:43;29.80;58.30
1704;DHT22;849;48.780;9.216;2023-06-26T15:25:14;30.20;56.70
1704;DHT22;849;48.780;9.216;2023-06-26T15:27:45;30.00;56.80
1704;DHT22;849;48.780;9.216;2023-06-26T15:30:16;30.20;57.10
1704;DHT22;849;48.780;9.216;2023-06-26T15:32:47;30.10;56.90
1704;DHT22;849;48.780;9.216;2023-06-26T15:35:18;30.20;55.70
1704;DHT22;849;48.780;9.216;2023-06-26T15:37:48;29.90;55.50
1704;DHT22;849;48.780;9.216;2023-06-26T15:40:20;29.80;56.70
1704;DHT22;849;48.780;9.216;2023-06-26T15:42:51;29.90;55.90
1704;DHT22;849;48.780;9.216;2023-06-26T15:45:25;29.90;55.50
1704;DHT22;849;48.780;9.216;2023-06-26T15:47:56;29.50;56.00
1704;DHT22;849;48.780;9.216;2023-06-26T15:50:27;29.30;55.90
1704;DHT22;849;48.780;9.216;2023-06-26T15:53:01;29.40;56.90
1704;DHT22;849;48.780;9.216;2023-06-26T15:55:32;29.50;55.80
1704;DHT22;849;48.780;9.216;2023-06-26T15:58:03;29.20;56.10
1704;DHT22;849;48.780;9.216;2023-06-26T16:00:34;29.30;57.10
1704;DHT22;849;48.780;9.216;2023-06-26T16:03:04;29.10;56.30
1704;DHT22;849;48.780;9.216;2023-06-26T16:05:35;28.70;56.80
1704;DHT22;849;48.780;9.216;2023-06-26T16:08:06;28.70;57.50
1704;DHT22;849;48.780;9.216;2023-06-26T16:10:37;28.90;57.40
1704;DHT22;849;48.780;9.216;2023-06-26T16:13:07;28.90;57.70
1704;DHT22;849;48.780;9.216;2023-06-26T16:15:38;28.60;57.80
1704;DHT22;849;48.780;9.216;2023-06-26T16:18:09;28.30;57.60
1704;DHT22;849;48.780;9.216;2023-06-26T16:20:40;28.20;57.80
1704;DHT22;849;48.780;9.216;2023-06-26T16:23:10;28.10;57.90
1704;DHT22;849;48.780;9.216;2023-06-26T16:25:41;28.20;58.30
1704;DHT22;849;48.780;9.216;2023-06-26T16:28:12;28.20;58.10
1704;DHT22;849;48.780;9.216;2023-06-26T16:30:43;28.30;58.10
1704;DHT22;849;48.780;9.216;2023-06-26T16:33:14;28.30;57.70
1704;DHT22;849;48.780;9.216;2023-06-26T16:35:46;28.20;57.40
1704;DHT22;849;48.780;9.216;2023-06-26T16:38:16;28.10;57.50
1704;DHT22;849;48.780;9.216;2023-06-26T16:40:47;28.10;57.00
1704;DHT22;849;48.780;9.216;2023-06-26T16:43:18;28.30;56.10
1704;DHT22;849;48.780;9.216;2023-06-26T16:45:49;28.30;55.70